»·PEaware :: AAL2571 KPHX-KSNA

AAL2571 :: KPHX-KSNA

FLIGHT INFORMATION

Flight Status: Arrived
Operator:
American Airlines
More flights by this operator :: More flights under this callsign
Pilot: Drew L. (13237)
Aircraft: BOEING 737-800
(B738)
More flights by this aircraft type
Origin: KPHX Phoenix Sky Harbor Intl
United States
Destination: KSNA John Wayne-Orange Co
United States
More flights between these airports :: More routes between these airports
Route: +IZZZO6 HRRBR EMLLD DSNEE3
File this flight plan on PilotEdge
Remarks: PBN / A1B1C1D1S1S2 DOF / 180427 REG / N806SB EET / KZLA0018 OPR / AAL PER / C RMK / TCAS SIMBRIEF
Altitude:
(Current/Filed)
36,000ft
Speed:
(Current/Filed)
425kts
Departed: 27-Apr-18 02:39 PM
Arrived: 27-Apr-18 03:42 PM
Distance/Time
Traveled:
293nm/1:03
Distance/Time
To Go:
Arrived

Flight Plot

Page will automatically refresh every two minutes.

Flight plan parsing failed; only flown route is shown


Map Options




Map Legend


Flown Route
Filed Route
Departure Airport
Arrival Airport
Navaid (VOR, NDB)
Fix

Horizontal Profiles

Position Reports

Time Latitude Longitude Heading Altitude Ground
Speed
27-Apr-18 14:12 33.438257 -111.996562 230 1141ft 0kts
27-Apr-18 14:13 33.438257 -111.996562 230 1141ft 0kts
27-Apr-18 14:14 33.438257 -111.996562 230 1141ft 0kts
27-Apr-18 14:15 33.438257 -111.996562 230 1141ft 0kts
27-Apr-18 14:16 33.438257 -111.996562 230 1141ft 0kts
27-Apr-18 14:17 33.438257 -111.996562 230 1141ft 0kts
27-Apr-18 14:18 33.438257 -111.996562 230 1141ft 0kts
27-Apr-18 14:19 33.438257 -111.996562 230 1141ft 0kts
27-Apr-18 14:20 33.438257 -111.996562 230 1141ft 0kts
27-Apr-18 14:21 33.438257 -111.996562 230 1141ft 0kts
27-Apr-18 14:22 33.438257 -111.996562 230 1142ft 0kts
27-Apr-18 14:23 33.438257 -111.996562 230 1142ft 0kts
27-Apr-18 14:24 33.438257 -111.996562 230 1142ft 0kts
27-Apr-18 14:25 33.438257 -111.996562 230 1142ft 0kts
27-Apr-18 14:26 33.438257 -111.996562 230 1142ft 0kts
27-Apr-18 14:27 33.438257 -111.996562 230 1142ft 0kts
27-Apr-18 14:28 33.438257 -111.996562 230 1142ft 0kts
27-Apr-18 14:29 33.438257 -111.996562 230 1142ft 0kts
27-Apr-18 14:30 33.438257 -111.996562 230 1142ft 0kts
27-Apr-18 14:31 33.438282 -111.996525 231 1142ft 2kts
27-Apr-18 14:32 33.438431 -111.995846 275 1142ft 2kts
27-Apr-18 14:33 33.438108 -111.995564 0 1142ft 0kts
27-Apr-18 14:34 33.438108 -111.995564 0 1142ft 0kts
27-Apr-18 14:35 33.438108 -111.995564 0 1142ft 0kts
27-Apr-18 14:36 33.438108 -111.995564 0 1142ft 0kts
27-Apr-18 14:37 33.438175 -111.995563 0 1142ft 4kts
27-Apr-18 14:38 33.439017 -112.003768 270 1142ft 48kts
27-Apr-18 14:39 33.439016 -112.019273 270 1142ft 45kts
27-Apr-18 14:40 33.440778 -112.029290 69 1142ft 26kts
27-Apr-18 14:41 33.441040 -111.984309 87 2498ft 196kts
27-Apr-18 14:42 33.437283 -111.907929 94 5459ft 271kts
27-Apr-18 14:43 33.392705 -111.841792 171 9328ft 285kts
27-Apr-18 14:44 33.324544 -111.889686 245 12185ft 331kts
27-Apr-18 14:45 33.341622 -111.994064 308 15832ft 357kts
27-Apr-18 14:46 33.375189 -112.104310 281 19248ft 366kts
27-Apr-18 14:47 33.398663 -112.224007 281 22363ft 378kts
27-Apr-18 14:48 33.422767 -112.347685 281 25134ft 389kts
27-Apr-18 14:49 33.447579 -112.475721 281 27516ft 401kts
27-Apr-18 14:50 33.472922 -112.607231 281 29718ft 410kts
27-Apr-18 14:51 33.497707 -112.736602 281 32278ft 401kts
27-Apr-18 14:52 33.522093 -112.864796 281 34540ft 393kts
27-Apr-18 14:53 33.546116 -112.991820 281 35880ft 402kts
27-Apr-18 14:54 33.571616 -113.127534 281 35882ft 430kts
27-Apr-18 14:55 33.597723 -113.267200 281 35880ft 431kts
27-Apr-18 14:56 33.623728 -113.407218 281 35879ft 431kts
27-Apr-18 14:57 33.649670 -113.547815 281 35877ft 431kts
27-Apr-18 14:58 33.672746 -113.673692 281 35866ft 431kts
27-Apr-18 14:59 33.697916 -113.812099 281 35854ft 431kts
27-Apr-18 15:00 33.722954 -113.950670 281 35853ft 431kts
27-Apr-18 15:01 33.748207 -114.091316 281 35850ft 431kts
27-Apr-18 15:02 33.769080 -114.232559 277 35851ft 430kts
27-Apr-18 15:03 33.785501 -114.374709 277 35852ft 430kts
27-Apr-18 15:04 33.800986 -114.509661 277 35852ft 430kts
27-Apr-18 15:05 33.817183 -114.651922 277 35851ft 430kts
27-Apr-18 15:06 33.833147 -114.793777 276 35854ft 430kts
27-Apr-18 15:07 33.847709 -114.924336 277 35365ft 438kts
27-Apr-18 15:08 33.863647 -115.067915 276 33772ft 430kts
27-Apr-18 15:09 33.879366 -115.210901 276 32188ft 434kts
27-Apr-18 15:10 33.895057 -115.355144 276 30602ft 439kts
27-Apr-18 15:11 33.910804 -115.501464 276 29008ft 445kts
27-Apr-18 15:12 33.926539 -115.649286 276 27992ft 446kts
27-Apr-18 15:13 33.935688 -115.771941 273 28464ft 443kts
27-Apr-18 15:14 33.943871 -115.889699 273 27864ft 456kts
27-Apr-18 15:15 33.954253 -116.040446 273 25882ft 454kts
27-Apr-18 15:16 33.963754 -116.180482 273 24059ft 460kts
27-Apr-18 15:17 33.950968 -116.331609 260 22054ft 442kts
27-Apr-18 15:18 33.933388 -116.467818 260 20004ft 393kts
27-Apr-18 15:19 33.917005 -116.595364 260 18003ft 382kts
27-Apr-18 15:20 33.903104 -116.701560 259 16471ft 374kts
27-Apr-18 15:21 33.890125 -116.807323 261 15097ft 366kts
27-Apr-18 15:22 33.877299 -116.923971 261 13518ft 343kts
27-Apr-18 15:23 33.866790 -117.019121 261 12099ft 316kts
27-Apr-18 15:24 33.856018 -117.115940 261 11056ft 283kts
27-Apr-18 15:25 33.845662 -117.208196 261 10059ft 278kts
27-Apr-18 15:26 33.835347 -117.299518 261 9058ft 274kts
27-Apr-18 15:27 33.825377 -117.387298 262 8070ft 254kts
27-Apr-18 15:28 33.806855 -117.463452 247 7980ft 236kts
27-Apr-18 15:29 33.780417 -117.534716 247 7992ft 227kts
27-Apr-18 15:30 33.758618 -117.593228 247 7978ft 222kts
27-Apr-18 15:31 33.745479 -117.654916 286 7130ft 217kts
27-Apr-18 15:32 33.768976 -117.703114 299 5412ft 209kts
27-Apr-18 15:33 33.793137 -117.749383 299 4125ft 205kts
27-Apr-18 15:34 33.820136 -117.802152 299 3037ft 197kts
27-Apr-18 15:35 33.856634 -117.834325 27 3020ft 205kts
27-Apr-18 15:36 33.841534 -117.784210 160 3036ft 217kts
27-Apr-18 15:37 33.789783 -117.791032 221 2991ft 196kts
27-Apr-18 15:38 33.746363 -117.823997 209 1569ft 182kts
27-Apr-18 15:39 33.710122 -117.847015 208 655ft 134kts
27-Apr-18 15:40 33.679396 -117.866472 208 66ft 126kts
27-Apr-18 15:41 33.669021 -117.871434 118 64ft 0kts

Navigation Log

Ident Type
Flight plan parsing failed, navigation log unavailable